createdAt,value
2019-02-06T00:02:00.905Z,37.13
2019-02-06T00:04:31.516Z,37.10
2019-02-06T00:07:01.974Z,39.93
2019-02-06T00:09:32.395Z,34.93
2019-02-06T00:12:02.924Z,37.47
2019-02-06T00:14:33.377Z,41.63
2019-02-06T00:17:04.240Z,34.87
2019-02-06T00:19:34.719Z,36.20
2019-02-06T00:22:06.782Z,42.63
2019-02-06T00:24:37.221Z,34.33
2019-02-06T00:27:07.637Z,41.77
2019-02-06T00:29:38.065Z,36.97
2019-02-06T00:32:08.711Z,32.60
2019-02-06T00:34:39.272Z,41.13
2019-02-06T00:37:09.755Z,32.70
2019-02-06T00:39:40.187Z,37.40
2019-02-06T00:42:10.611Z,30.57
2019-02-06T00:44:41.041Z,32.63
2019-02-06T00:47:11.618Z,30.90
2019-02-06T00:50:17.898Z,31.67
2019-02-06T00:52:48.366Z,31.10
2019-02-06T00:55:18.800Z,30.63
2019-02-06T00:57:50.341Z,29.23
2019-02-06T01:00:24.045Z,28.80
2019-02-06T01:03:04.582Z,30.57
2019-02-06T01:05:44.148Z,26.70
2019-02-06T01:08:32.499Z,27.20
2019-02-06T01:14:44.571Z,30.37
2019-02-06T01:17:15.206Z,26.23
2019-02-06T01:19:45.782Z,27.60
2019-02-06T01:22:17.337Z,24.57
2019-02-06T01:24:47.762Z,23.80
2019-02-06T01:27:18.199Z,24.37
2019-02-06T01:29:48.623Z,21.27
2019-02-06T01:32:19.255Z,22.40
2019-02-06T01:34:49.675Z,16.40
2019-02-06T01:37:20.195Z,25.73
2019-02-06T01:39:50.634Z,22.13
2019-02-06T01:42:21.160Z,21.33
2019-02-06T01:44:51.588Z,18.43
2019-02-06T01:47:22.015Z,20.67
2019-02-06T01:49:52.488Z,19.73
2019-02-06T01:52:22.979Z,20.67
2019-02-06T01:54:53.704Z,16.83
2019-02-06T01:57:24.136Z,19.20
2019-02-06T01:59:54.562Z,18.73
2019-02-06T02:02:24.986Z,17.03
2019-02-06T02:04:55.507Z,17.93
2019-02-06T02:07:26.147Z,15.23
2019-02-06T02:09:57.085Z,20.90
2019-02-06T02:12:28.537Z,18.90
2019-02-06T02:14:59.046Z,17.73
2019-02-06T02:17:29.595Z,14.47
2019-02-06T02:20:00.191Z,25.13
2019-02-06T02:22:31.067Z,15.20
2019-02-06T02:25:01.491Z,14.00
2019-02-06T02:27:56.393Z,14.60
2019-02-06T02:31:02.790Z,8.67
2019-02-06T02:33:33.335Z,13.03
2019-02-06T02:36:15.054Z,12.80
2019-02-06T02:38:35.990Z,11.37
2019-02-06T02:41:06.621Z,12.37
2019-02-06T02:43:38.078Z,13.67
2019-02-06T02:46:08.600Z,13.40
2019-02-06T02:48:39.233Z,11.90
2019-02-06T02:51:09.703Z,12.27
2019-02-06T02:53:40.189Z,11.17
2019-02-06T02:56:10.615Z,12.23
2019-02-06T02:58:41.043Z,10.90
2019-02-06T03:01:29.287Z,11.70
2019-02-06T03:04:07.909Z,11.90
2019-02-06T03:06:39.535Z,12.23
2019-02-06T03:09:13.426Z,12.97
2019-02-06T03:11:44.170Z,12.87
2019-02-06T03:14:15.043Z,20.57
2019-02-06T03:16:45.470Z,15.07
2019-02-06T03:19:15.905Z,15.23
2019-02-06T03:21:46.736Z,14.00
2019-02-06T03:24:17.269Z,11.97
2019-02-06T03:26:47.689Z,8.53
2019-02-06T03:29:18.118Z,14.70
2019-02-06T03:31:48.650Z,11.57
2019-02-06T03:34:19.219Z,9.40
2019-02-06T03:36:49.808Z,10.67
2019-02-06T03:39:20.236Z,9.73
2019-02-06T03:41:50.969Z,6.37
2019-02-06T03:44:21.395Z,6.77
2019-02-06T03:47:10.664Z,6.67
2019-02-06T03:49:42.799Z,7.33
2019-02-06T03:52:13.332Z,11.93
2019-02-06T03:54:43.788Z,6.47
2019-02-06T03:57:14.216Z,9.47
2019-02-06T03:59:44.640Z,9.77
2019-02-06T04:02:16.092Z,6.87
2019-02-06T04:04:46.686Z,9.20
2019-02-06T04:07:17.151Z,5.33
2019-02-06T04:09:47.577Z,7.07
2019-02-06T04:12:19.019Z,5.93
2019-02-06T04:14:49.457Z,6.37
2019-02-06T04:17:19.884Z,6.20
2019-02-06T04:19:50.617Z,4.40
2019-02-06T04:22:22.068Z,5.20
2019-02-06T04:24:52.643Z,5.53
2019-02-06T04:27:23.172Z,4.93
2019-02-06T04:29:53.863Z,8.87
2019-02-06T04:32:25.311Z,7.10
2019-02-06T04:34:55.743Z,5.27
2019-02-06T04:37:26.170Z,6.83
2019-02-06T04:39:56.592Z,6.30
2019-02-06T04:42:27.020Z,4.30
2019-02-06T04:44:57.652Z,7.17
2019-02-06T04:47:28.488Z,3.33
2019-02-06T04:49:59.051Z,4.07
2019-02-06T04:52:29.760Z,2.53
2019-02-06T04:55:00.349Z,5.50
2019-02-06T04:57:30.812Z,4.43
2019-02-06T05:00:01.237Z,3.57
2019-02-06T05:02:31.666Z,4.03
2019-02-06T05:05:02.213Z,3.30
2019-02-06T05:07:32.622Z,2.83
2019-02-06T05:10:03.050Z,4.47
2019-02-06T05:12:33.477Z,3.47
2019-02-06T05:15:04.312Z,2.97
2019-02-06T05:17:34.738Z,1.63
2019-02-06T05:20:08.983Z,2.17
2019-02-06T05:22:45.321Z,3.67
2019-02-06T05:25:15.747Z,4.20
2019-02-06T05:27:46.637Z,2.97
2019-02-06T05:30:17.118Z,3.30
2019-02-06T05:32:48.577Z,1.97
2019-02-06T05:35:19.083Z,3.57
2019-02-06T05:37:49.520Z,2.93
2019-02-06T05:40:19.950Z,2.77
2019-02-06T05:42:52.612Z,2.93
2019-02-06T05:45:22.440Z,2.40
2019-02-06T05:47:52.868Z,2.57
2019-02-06T05:50:23.696Z,2.33
2019-02-06T05:52:54.381Z,2.80
2019-02-06T05:55:25.174Z,2.60
2019-02-06T05:57:55.660Z,4.37
2019-02-06T06:00:35.255Z,3.07
2019-02-06T06:03:05.987Z,2.10
2019-02-06T06:05:36.510Z,2.30
2019-02-06T06:08:07.240Z,2.93
2019-02-06T06:10:37.666Z,2.70
2019-02-06T06:13:08.102Z,2.23
2019-02-06T06:15:38.520Z,2.40
2019-02-06T06:18:08.947Z,2.17
2019-02-06T06:20:39.375Z,1.80
2019-02-06T06:23:09.904Z,1.23
2019-02-06T06:25:40.332Z,2.87
2019-02-06T06:28:10.759Z,2.00
2019-02-06T06:30:41.230Z,1.80
2019-02-06T06:33:11.714Z,2.07
2019-02-06T06:35:43.465Z,1.10
2019-02-06T06:38:14.104Z,2.00
2019-02-06T06:40:44.762Z,2.23
2019-02-06T06:43:16.363Z,2.90
2019-02-06T06:45:47.027Z,2.47
2019-02-06T06:48:17.450Z,1.63
2019-02-06T06:50:48.355Z,2.73
2019-02-06T06:53:18.972Z,2.47
2019-02-06T06:55:49.583Z,2.73
2019-02-06T06:58:19.978Z,2.57
2019-02-06T07:00:50.456Z,2.43
2019-02-06T07:03:21.210Z,5.20
2019-02-06T07:05:51.874Z,3.40
2019-02-06T07:08:22.292Z,3.53
2019-02-06T07:10:52.728Z,2.70
2019-02-06T07:13:23.154Z,3.07
2019-02-06T07:15:53.589Z,2.73
2019-02-06T07:18:24.418Z,2.30
2019-02-06T07:20:54.847Z,4.30
2019-02-06T07:23:26.286Z,2.63
2019-02-06T07:25:56.825Z,2.07
2019-02-06T07:28:27.255Z,2.97
2019-02-06T07:30:57.678Z,3.40
2019-02-06T07:33:28.155Z,3.73
2019-02-06T07:35:58.637Z,2.97
2019-02-06T07:38:29.064Z,3.90
2019-02-06T07:40:59.490Z,2.73
2019-02-06T07:43:29.915Z,3.23
2019-02-06T07:46:00.446Z,2.13
2019-02-06T07:48:30.874Z,3.13
2019-02-06T07:51:01.474Z,3.03
2019-02-06T07:53:32.079Z,3.03
2019-02-06T07:56:02.563Z,3.37
2019-02-06T07:58:32.981Z,4.80
2019-02-06T08:01:03.815Z,4.77
2019-02-06T08:03:34.427Z,4.43
2019-02-06T08:06:05.044Z,7.03
2019-02-06T08:08:36.466Z,5.87
2019-02-06T08:11:12.974Z,6.20
2019-02-06T08:13:43.819Z,7.03
2019-02-06T08:16:14.273Z,5.50
2019-02-06T08:18:44.699Z,3.80
2019-02-06T08:21:15.127Z,7.10
2019-02-06T08:23:46.577Z,7.37
2019-02-06T08:26:17.007Z,2.93
2019-02-06T08:28:47.439Z,4.57
2019-02-06T08:31:17.857Z,2.50
2019-02-06T08:33:48.290Z,8.97
2019-02-06T08:36:18.713Z,6.57
2019-02-06T08:38:49.727Z,5.33
2019-02-06T08:41:20.990Z,9.73
2019-02-06T08:43:51.427Z,6.57
2019-02-06T08:46:21.855Z,7.43
2019-02-06T08:48:52.455Z,6.67
2019-02-06T08:51:23.087Z,5.57
2019-02-06T08:53:53.691Z,7.00
2019-02-06T08:56:24.177Z,11.17
2019-02-06T08:58:54.608Z,7.73
2019-02-06T09:01:25.033Z,8.40
2019-02-06T09:03:55.462Z,5.27
2019-02-06T09:06:25.987Z,7.50
2019-02-06T09:08:59.665Z,31.27
2019-02-06T09:11:28.891Z,42.50
2019-02-06T09:13:59.323Z,18.33
2019-02-06T09:16:29.744Z,18.13
2019-02-06T09:19:00.170Z,10.50
2019-02-06T09:21:30.597Z,12.40
2019-02-06T09:24:01.025Z,13.83
2019-02-06T09:26:35.440Z,13.30
2019-02-06T09:29:03.518Z,9.13
2019-02-06T09:31:33.943Z,10.83
2019-02-06T09:34:04.371Z,12.73
2019-02-06T09:36:35.106Z,14.30
2019-02-06T09:39:11.857Z,8.03
2019-02-06T09:41:39.998Z,11.47
2019-02-06T09:44:10.481Z,13.27
2019-02-06T09:46:40.909Z,12.13
2019-02-06T09:49:11.328Z,8.23
2019-02-06T09:51:41.935Z,8.40
2019-02-06T09:54:12.606Z,8.10
2019-02-06T09:56:43.028Z,8.03
2019-02-06T09:59:13.452Z,8.83
2019-02-06T10:01:44.086Z,9.40
2019-02-06T10:04:15.028Z,4.90
2019-02-06T10:06:46.269Z,6.57
2019-02-06T10:09:22.877Z,6.60
2019-02-06T10:11:48.907Z,5.73
2019-02-06T10:14:19.393Z,6.90
2019-02-06T10:16:49.822Z,13.67
2019-02-06T10:19:20.249Z,8.40
2019-02-06T10:21:53.564Z,4.43
2019-02-06T10:24:23.759Z,3.93
2019-02-06T10:26:54.193Z,6.00
2019-02-06T10:29:24.618Z,4.13
2019-02-06T10:31:55.250Z,3.07
2019-02-06T10:34:25.677Z,2.67
2019-02-06T10:36:56.278Z,2.17
2019-02-06T10:39:34.216Z,3.00
2019-02-06T10:41:58.975Z,3.37
2019-02-06T10:44:29.888Z,2.90
2019-02-06T10:47:00.405Z,3.53
2019-02-06T10:49:30.967Z,4.00
2019-02-06T10:52:01.604Z,3.60
2019-02-06T10:54:32.212Z,4.33
2019-02-06T10:57:02.693Z,6.37
2019-02-06T10:59:33.121Z,5.27
2019-02-06T11:02:04.156Z,6.87
2019-02-06T11:04:34.592Z,7.53
2019-02-06T11:07:08.014Z,3.03
2019-02-06T11:09:46.122Z,4.80
2019-02-06T11:12:09.527Z,3.20
2019-02-06T11:14:40.131Z,2.87
2019-02-06T11:17:10.607Z,2.83
2019-02-06T11:19:43.011Z,3.77
2019-02-06T11:22:13.360Z,2.43
2019-02-06T11:24:43.842Z,2.13
2019-02-06T11:27:14.372Z,2.53
2019-02-06T11:29:44.799Z,2.37
2019-02-06T11:32:15.435Z,2.70
2019-02-06T11:34:45.858Z,3.00
2019-02-06T11:37:16.285Z,3.10
2019-02-06T11:39:57.308Z,2.80
2019-02-06T11:42:20.098Z,2.77
2019-02-06T11:44:50.702Z,2.40
2019-02-06T11:47:21.211Z,5.17
2019-02-06T11:49:54.640Z,2.90
2019-02-06T11:52:25.470Z,3.80
2019-02-06T11:54:55.975Z,3.67
2019-02-06T11:57:26.446Z,4.20
2019-02-06T11:59:56.887Z,3.87
2019-02-06T12:02:37.018Z,3.47
2019-02-06T12:05:00.505Z,3.20
2019-02-06T12:07:31.033Z,5.33
2019-02-06T12:10:09.381Z,3.40
2019-02-06T12:12:34.551Z,4.80
2019-02-06T12:15:05.844Z,4.33
2019-02-06T12:17:36.378Z,3.70
2019-02-06T12:20:09.891Z,3.70
2019-02-06T12:22:40.354Z,3.50
2019-02-06T12:25:11.237Z,2.50
2019-02-06T12:27:41.720Z,4.60
2019-02-06T12:30:19.026Z,3.37
2019-02-06T12:33:07.742Z,2.47
2019-02-06T12:35:38.294Z,3.93
2019-02-06T12:38:08.914Z,3.93
2019-02-06T12:40:45.458Z,4.37
2019-02-06T12:43:15.933Z,5.57
2019-02-06T12:45:47.708Z,5.10
2019-02-06T12:48:18.183Z,5.43
2019-02-06T12:50:48.742Z,6.87
2019-02-06T12:53:20.311Z,4.83
2019-02-06T12:55:51.379Z,4.43
2019-02-06T12:58:21.866Z,3.57
2019-02-06T13:00:52.292Z,3.43
2019-02-06T13:03:23.913Z,5.07
2019-02-06T13:05:54.374Z,4.77
2019-02-06T13:11:49.583Z,6.13
2019-02-06T13:14:20.134Z,4.00
2019-02-06T13:16:52.199Z,4.53
2019-02-06T13:19:22.671Z,5.67
2019-02-06T13:21:53.156Z,7.60
2019-02-06T13:24:24.606Z,3.93
2019-02-06T13:26:55.033Z,7.37
2019-02-06T13:29:25.666Z,6.10
2019-02-06T13:31:56.091Z,5.10
2019-02-06T13:34:26.519Z,5.87
2019-02-06T13:36:56.947Z,4.83
2019-02-06T13:39:27.372Z,8.80
2019-02-06T13:41:57.800Z,4.37
2019-02-06T13:44:28.228Z,4.73
2019-02-06T13:46:58.657Z,3.87
2019-02-06T13:49:29.071Z,5.47
2019-02-06T13:51:59.563Z,9.03
2019-02-06T13:54:30.038Z,5.97
2019-02-06T13:57:00.667Z,5.03
2019-02-06T13:59:31.095Z,7.80
2019-02-06T14:02:01.523Z,7.63
2019-02-06T14:04:32.119Z,8.53
2019-02-06T14:07:02.584Z,6.60
2019-02-06T14:09:33.180Z,9.07
2019-02-06T14:12:03.742Z,8.57
2019-02-06T14:14:34.334Z,7.03
2019-02-06T14:17:05.074Z,7.87
2019-02-06T14:19:35.524Z,6.77
2019-02-06T14:22:05.962Z,4.50
2019-02-06T14:25:01.796Z,9.07
2019-02-06T14:28:02.591Z,8.97
2019-02-06T14:31:01.417Z,8.10
2019-02-06T14:33:39.982Z,5.70
2019-02-06T14:36:49.376Z,7.83
2019-02-06T14:39:50.695Z,3.47
2019-02-06T14:42:47.063Z,7.47
2019-02-06T14:45:44.113Z,7.80
2019-02-06T14:48:45.491Z,8.63
2019-02-06T14:52:07.709Z,13.73
2019-02-06T14:55:00.457Z,10.83
2019-02-06T14:57:51.468Z,13.07
2019-02-06T15:00:44.933Z,12.23
2019-02-06T15:03:46.151Z,7.73
2019-02-06T15:06:42.483Z,5.97
2019-02-06T15:09:54.111Z,5.63
2019-02-06T15:13:12.369Z,7.23
2019-02-06T15:15:56.062Z,6.30
2019-02-06T15:18:47.889Z,5.70
2019-02-06T15:21:32.041Z,6.00
2019-02-06T15:24:48.687Z,4.17
2019-02-06T15:27:54.543Z,4.60
2019-02-06T15:30:49.920Z,2.97
2019-02-06T15:33:47.592Z,5.73
2019-02-06T15:36:46.980Z,3.43
2019-02-06T15:39:49.982Z,3.00
2019-02-06T15:42:47.343Z,5.23
2019-02-06T15:45:58.663Z,3.50
2019-02-06T15:48:44.505Z,2.23
2019-02-06T15:51:45.265Z,4.13
2019-02-06T15:55:08.111Z,3.17
2019-02-06T15:57:54.820Z,1.93
2019-02-06T16:01:01.225Z,4.40
2019-02-06T16:04:25.923Z,1.73
2019-02-06T16:07:48.063Z,3.07
2019-02-06T16:11:06.722Z,1.83
2019-02-06T16:13:58.451Z,1.10
2019-02-06T16:17:01.540Z,1.10
2019-02-06T16:20:07.573Z,2.10
2019-02-06T16:23:26.158Z,2.00
2019-02-06T16:26:35.155Z,2.13
2019-02-06T16:30:04.828Z,1.50
2019-02-06T16:33:03.354Z,1.90
2019-02-06T16:36:25.326Z,1.20
2019-02-06T16:39:26.640Z,1.77
2019-02-06T16:42:48.205Z,1.37
2019-02-06T16:45:30.064Z,2.37
2019-02-06T16:48:31.758Z,2.20
2019-02-06T16:51:23.486Z,2.10
2019-02-06T16:54:26.680Z,2.43
2019-02-06T16:57:33.050Z,2.60
2019-02-06T17:00:43.969Z,2.20
2019-02-06T17:03:28.347Z,2.73
2019-02-06T17:06:29.734Z,2.03
2019-02-06T17:09:42.659Z,2.03
2019-02-06T17:12:55.684Z,1.47
2019-02-06T17:16:06.150Z,2.63
2019-02-06T17:19:15.783Z,1.60
2019-02-06T17:22:14.559Z,2.03
2019-02-06T17:25:06.995Z,1.63
2019-02-06T17:28:11.955Z,1.97
2019-02-06T17:31:32.370Z,3.03
2019-02-06T17:34:58.088Z,3.53
2019-02-06T17:38:03.606Z,2.57
2019-02-06T17:40:58.130Z,2.30
2019-02-06T17:44:04.193Z,1.80
2019-02-06T17:47:12.802Z,2.00
2019-02-06T17:50:16.489Z,3.17
2019-02-06T17:53:33.032Z,3.90
2019-02-06T17:56:03.463Z,4.33
2019-02-06T17:58:37.827Z,1.73
2019-02-06T18:01:18.304Z,3.90
2019-02-06T18:03:53.249Z,1.93
2019-02-06T18:06:23.707Z,2.63
2019-02-06T18:08:56.692Z,2.87
2019-02-06T18:11:27.219Z,4.43
2019-02-06T18:14:07.155Z,4.63
2019-02-06T18:16:46.900Z,2.40
2019-02-06T18:19:18.566Z,2.93
2019-02-06T18:21:50.603Z,3.23
2019-02-06T18:24:21.058Z,3.97
2019-02-06T18:26:51.911Z,3.10
2019-02-06T18:29:22.322Z,2.20
2019-02-06T18:31:52.919Z,2.83
2019-02-06T18:34:32.511Z,7.17
2019-02-06T18:37:03.218Z,3.40
2019-02-06T18:39:33.656Z,4.07
2019-02-06T18:42:10.227Z,4.20
2019-02-06T18:44:40.652Z,3.73
2019-02-06T18:47:11.070Z,5.33
2019-02-06T18:49:41.509Z,7.53
2019-02-06T18:52:20.235Z,5.87
2019-02-06T18:54:44.205Z,7.60
2019-02-06T18:57:14.807Z,9.00
2019-02-06T18:59:45.270Z,4.83
2019-02-06T19:02:16.723Z,5.20
2019-02-06T19:04:47.251Z,6.70
2019-02-06T19:07:17.823Z,7.83
2019-02-06T19:09:48.609Z,10.10
2019-02-06T19:12:19.174Z,7.53
2019-02-06T19:14:49.815Z,7.80
2019-02-06T19:17:20.304Z,6.30
2019-02-06T19:19:50.728Z,10.13
2019-02-06T19:22:22.182Z,6.30
2019-02-06T19:24:52.607Z,5.60
2019-02-06T19:27:23.032Z,6.07
2019-02-06T19:29:53.459Z,5.63
2019-02-06T19:32:23.887Z,6.40
2019-02-06T19:34:54.313Z,4.50
2019-02-06T19:37:24.796Z,7.73
2019-02-06T19:39:55.685Z,6.57
2019-02-06T19:42:27.138Z,4.87
2019-02-06T19:44:57.563Z,6.33
2019-02-06T19:47:30.606Z,6.13
2019-02-06T19:50:00.362Z,5.90
2019-02-06T19:52:30.886Z,6.90
2019-02-06T19:55:01.519Z,7.17
2019-02-06T19:57:31.946Z,4.77
2019-02-06T20:00:12.072Z,6.57
2019-02-06T20:02:42.529Z,5.83
2019-02-06T20:05:14.755Z,7.33
2019-02-06T20:07:45.839Z,7.70
2019-02-06T20:10:19.747Z,4.33
2019-02-06T20:12:51.074Z,5.23
2019-02-06T20:15:21.877Z,6.70
2019-02-06T20:17:52.463Z,6.13
2019-02-06T20:20:24.971Z,5.20
2019-02-06T20:22:55.793Z,2.83
2019-02-06T20:25:26.551Z,4.37
2019-02-06T20:27:57.117Z,4.00
2019-02-06T20:30:29.140Z,2.60
2019-02-06T20:33:01.171Z,2.53
2019-02-06T20:35:32.964Z,3.87
2019-02-06T20:38:25.192Z,3.10
2019-02-06T20:40:57.025Z,2.93
2019-02-06T20:43:49.530Z,3.77
2019-02-06T20:46:21.347Z,3.20
2019-02-06T20:48:52.540Z,2.83
2019-02-06T20:51:23.819Z,4.67
2019-02-06T20:53:56.091Z,4.17
2019-02-06T20:56:26.915Z,2.70
2019-02-06T20:58:57.668Z,3.83
2019-02-06T21:01:28.670Z,3.97
2019-02-06T21:04:00.617Z,2.23
2019-02-06T21:06:31.707Z,2.37
2019-02-06T21:09:02.268Z,2.63
2019-02-06T21:11:33.325Z,3.47
2019-02-06T21:14:04.385Z,3.63
2019-02-06T21:16:35.350Z,2.70
2019-02-06T21:19:15.622Z,3.67
2019-02-06T21:21:46.223Z,3.33
2019-02-06T21:24:17.116Z,6.07
2019-02-06T21:26:47.900Z,8.17
2019-02-06T21:29:20.263Z,2.73
2019-02-06T21:32:06.786Z,3.63
2019-02-06T21:34:49.208Z,2.23
2019-02-06T21:37:36.100Z,2.80
2019-02-06T21:40:09.519Z,1.47
2019-02-06T21:42:40.649Z,1.13
2019-02-06T21:45:11.784Z,3.97
2019-02-06T21:47:42.545Z,3.10
2019-02-06T21:50:14.913Z,1.67
2019-02-06T21:52:46.272Z,1.10
2019-02-06T21:55:28.296Z,1.77
2019-02-06T21:57:59.126Z,2.10
2019-02-06T22:00:32.197Z,1.83
2019-02-06T22:03:04.156Z,1.50
2019-02-06T22:05:35.228Z,2.33
2019-02-06T22:08:06.151Z,1.13
2019-02-06T22:10:37.251Z,1.83
2019-02-06T22:13:09.363Z,1.37
2019-02-06T22:15:40.403Z,2.37
2019-02-06T22:18:11.157Z,1.20
2019-02-06T22:20:41.671Z,2.00
2019-02-06T22:23:12.501Z,2.20
2019-02-06T22:25:43.117Z,5.07
2019-02-06T22:28:13.741Z,3.47
2019-02-06T22:30:44.375Z,3.13
2019-02-06T22:33:14.827Z,3.43
2019-02-06T22:35:45.348Z,3.13
2019-02-06T22:38:15.831Z,2.43
2019-02-06T22:40:51.818Z,2.23
2019-02-06T22:43:22.299Z,3.27
2019-02-06T22:45:52.932Z,4.47
2019-02-06T22:48:23.443Z,4.23
2019-02-06T22:50:53.947Z,5.60
2019-02-06T22:53:24.903Z,4.03
2019-02-06T22:55:55.674Z,7.20
2019-02-06T22:58:26.402Z,6.40
2019-02-06T23:01:24.000Z,3.37
2019-02-06T23:03:55.947Z,4.00
2019-02-06T23:06:26.667Z,4.27
2019-02-06T23:08:57.155Z,5.50
2019-02-06T23:11:27.875Z,5.37
2019-02-06T23:14:17.159Z,3.63
2019-02-06T23:16:42.916Z,5.33
2019-02-06T23:19:13.577Z,6.40
2019-02-06T23:21:44.247Z,11.40
2019-02-06T23:24:14.994Z,12.70
2019-02-06T23:26:45.501Z,8.63
2019-02-06T23:29:19.200Z,6.20
2019-02-06T23:31:53.003Z,5.70
2019-02-06T23:34:23.520Z,11.30
2019-02-06T23:36:53.947Z,15.93
2019-02-06T23:39:24.577Z,15.77
2019-02-06T23:41:55.111Z,19.40
2019-02-06T23:44:29.079Z,18.80
2019-02-06T23:46:58.975Z,15.87
2019-02-06T23:49:29.507Z,14.73
2019-02-06T23:51:59.990Z,11.83
2019-02-06T23:54:30.420Z,18.63
2019-02-06T23:57:00.992Z,19.30
2019-02-06T23:59:31.484Z,28.87
